sensor_id;sensor_type;location;lat;lon;timestamp;temperature;humidity
70300;HTU21D;57704;51.112;5.878;2022-09-09T00:02:24;16.54;84.56
70300;HTU21D;57704;51.112;5.878;2022-09-09T00:07:48;16.51;84.61
70300;HTU21D;57704;51.112;5.878;2022-09-09T00:10:29;16.49;84.58
70300;HTU21D;57704;51.112;5.878;2022-09-09T00:15:53;16.36;84.42
70300;HTU21D;57704;51.112;5.878;2022-09-09T00:21:13;16.31;84.77
70300;HTU21D;57704;51.112;5.878;2022-09-09T00:23:54;16.33;84.78
70300;HTU21D;57704;51.112;5.878;2022-09-09T00:29:15;16.33;84.74
70300;HTU21D;57704;51.112;5.878;2022-09-09T00:31:54;16.31;84.65
70300;HTU21D;57704;51.112;5.878;2022-09-09T00:34:26;16.28;84.65
70300;HTU21D;57704;51.112;5.878;2022-09-09T00:36:56;16.19;84.89
70300;HTU21D;57704;51.112;5.878;2022-09-09T00:39:45;16.17;85.05
70300;HTU21D;57704;51.112;5.878;2022-09-09T00:42:32;16.18;85.13
70300;HTU21D;57704;51.112;5.878;2022-09-09T00:47:50;16.24;85.01
70300;HTU21D;57704;51.112;5.878;2022-09-09T00:51:00;16.20;85.03
70300;HTU21D;57704;51.112;5.878;2022-09-09T00:56:14;16.17;85.15
70300;HTU21D;57704;51.112;5.878;2022-09-09T01:01:33;16.15;85.19
70300;HTU21D;57704;51.112;5.878;2022-09-09T01:04:14;16.13;85.16
70300;HTU21D;57704;51.112;5.878;2022-09-09T01:06:55;16.08;85.36
70300;HTU21D;57704;51.112;5.878;2022-09-09T01:09:54;16.10;85.42
70300;HTU21D;57704;51.112;5.878;2022-09-09T01:15:21;16.10;85.39
70300;HTU21D;57704;51.112;5.878;2022-09-09T01:18:04;16.10;85.32
70300;HTU21D;57704;51.112;5.878;2022-09-09T01:26:41;16.12;85.42
70300;HTU21D;57704;51.112;5.878;2022-09-09T01:29:24;16.15;85.33
70300;HTU21D;57704;51.112;5.878;2022-09-09T01:34:33;16.08;85.15
70300;HTU21D;57704;51.112;5.878;2022-09-09T01:37:07;16.05;85.23
70300;HTU21D;57704;51.112;5.878;2022-09-09T01:39:37;16.00;85.27
70300;HTU21D;57704;51.112;5.878;2022-09-09T01:42:16;16.00;85.40
70300;HTU21D;57704;51.112;5.878;2022-09-09T01:44:44;16.01;85.26
70300;HTU21D;57704;51.112;5.878;2022-09-09T01:47:12;15.97;85.26
70300;HTU21D;57704;51.112;5.878;2022-09-09T01:51:16;15.96;85.45
70300;HTU21D;57704;51.112;5.878;2022-09-09T01:54:28;15.98;85.46
70300;HTU21D;57704;51.112;5.878;2022-09-09T02:00:44;15.96;85.37
70300;HTU21D;57704;51.112;5.878;2022-09-09T02:03:25;16.01;85.35
70300;HTU21D;57704;51.112;5.878;2022-09-09T02:06:33;16.01;85.33
70300;HTU21D;57704;51.112;5.878;2022-09-09T02:09:19;15.99;85.23
70300;HTU21D;57704;51.112;5.878;2022-09-09T02:12:05;15.96;85.26
70300;HTU21D;57704;51.112;5.878;2022-09-09T02:14:49;15.91;85.42
70300;HTU21D;57704;51.112;5.878;2022-09-09T02:17:28;15.92;85.52
70300;HTU21D;57704;51.112;5.878;2022-09-09T02:20:14;15.92;85.50
70300;HTU21D;57704;51.112;5.878;2022-09-09T02:22:53;15.92;85.55
70300;HTU21D;57704;51.112;5.878;2022-09-09T02:25:26;15.93;85.61
70300;HTU21D;57704;51.112;5.878;2022-09-09T02:28:04;15.96;85.54
70300;HTU21D;57704;51.112;5.878;2022-09-09T02:30:34;15.96;85.64
70300;HTU21D;57704;51.112;5.878;2022-09-09T02:33:07;15.97;85.66
70300;HTU21D;57704;51.112;5.878;2022-09-09T02:35:47;16.01;85.58
70300;HTU21D;57704;51.112;5.878;2022-09-09T02:38:23;16.00;85.48
70300;HTU21D;57704;51.112;5.878;2022-09-09T02:40:59;15.96;85.65
70300;HTU21D;57704;51.112;5.878;2022-09-09T02:43:37;15.96;85.70
70300;HTU21D;57704;51.112;5.878;2022-09-09T02:46:27;15.96;85.67
70300;HTU21D;57704;51.112;5.878;2022-09-09T02:54:30;15.99;85.81
70300;HTU21D;57704;51.112;5.878;2022-09-09T02:57:21;16.02;85.80
70300;HTU21D;57704;51.112;5.878;2022-09-09T02:59:51;16.04;85.73
70300;HTU21D;57704;51.112;5.878;2022-09-09T03:02:18;16.05;85.70
70300;HTU21D;57704;51.112;5.878;2022-09-09T03:04:53;16.06;85.63
70300;HTU21D;57704;51.112;5.878;2022-09-09T03:07:21;16.06;85.61
70300;HTU21D;57704;51.112;5.878;2022-09-09T03:09:49;16.06;85.70
70300;HTU21D;57704;51.112;5.878;2022-09-09T03:12:16;16.04;85.69
70300;HTU21D;57704;51.112;5.878;2022-09-09T03:14:42;16.03;85.64
70300;HTU21D;57704;51.112;5.878;2022-09-09T03:17:12;16.03;85.64
70300;HTU21D;57704;51.112;5.878;2022-09-09T03:19:49;16.04;85.73
70300;HTU21D;57704;51.112;5.878;2022-09-09T03:22:18;16.06;85.69
70300;HTU21D;57704;51.112;5.878;2022-09-09T03:24:46;16.05;85.71
70300;HTU21D;57704;51.112;5.878;2022-09-09T03:27:13;16.06;85.80
70300;HTU21D;57704;51.112;5.878;2022-09-09T03:29:46;16.07;85.78
70300;HTU21D;57704;51.112;5.878;2022-09-09T03:32:19;16.08;85.83
70300;HTU21D;57704;51.112;5.878;2022-09-09T03:34:51;16.13;85.84
70300;HTU21D;57704;51.112;5.878;2022-09-09T03:37:19;16.15;85.81
70300;HTU21D;57704;51.112;5.878;2022-09-09T03:39:47;16.14;85.87
70300;HTU21D;57704;51.112;5.878;2022-09-09T03:42:23;16.18;85.85
70300;HTU21D;57704;51.112;5.878;2022-09-09T03:44:53;16.21;85.73
70300;HTU21D;57704;51.112;5.878;2022-09-09T03:47:23;16.24;85.60
70300;HTU21D;57704;51.112;5.878;2022-09-09T03:50:17;16.24;85.55
70300;HTU21D;57704;51.112;5.878;2022-09-09T03:52:46;16.25;85.56
70300;HTU21D;57704;51.112;5.878;2022-09-09T03:55:19;16.25;85.45
70300;HTU21D;57704;51.112;5.878;2022-09-09T03:57:46;16.27;85.47
70300;HTU21D;57704;51.112;5.878;2022-09-09T04:00:13;16.28;85.46
70300;HTU21D;57704;51.112;5.878;2022-09-09T04:02:42;16.31;85.48
70300;HTU21D;57704;51.112;5.878;2022-09-09T04:05:13;16.35;85.36
70300;HTU21D;57704;51.112;5.878;2022-09-09T04:07:42;16.35;85.42
70300;HTU21D;57704;51.112;5.878;2022-09-09T04:10:09;16.39;85.29
70300;HTU21D;57704;51.112;5.878;2022-09-09T04:12:38;16.40;85.21
70300;HTU21D;57704;51.112;5.878;2022-09-09T04:15:05;16.41;85.21
70300;HTU21D;57704;51.112;5.878;2022-09-09T04:17:32;16.43;85.03
70300;HTU21D;57704;51.112;5.878;2022-09-09T04:19:59;16.43;85.18
70300;HTU21D;57704;51.112;5.878;2022-09-09T04:22:28;16.47;85.17
70300;HTU21D;57704;51.112;5.878;2022-09-09T04:24:58;16.54;84.98
70300;HTU21D;57704;51.112;5.878;2022-09-09T04:27:24;16.51;85.02
70300;HTU21D;57704;51.112;5.878;2022-09-09T04:29:50;16.55;84.85
70300;HTU21D;57704;51.112;5.878;2022-09-09T04:32:19;16.55;84.97
70300;HTU21D;57704;51.112;5.878;2022-09-09T04:34:46;16.56;84.99
70300;HTU21D;57704;51.112;5.878;2022-09-09T04:37:19;16.60;84.87
70300;HTU21D;57704;51.112;5.878;2022-09-09T04:39:49;16.62;84.76
70300;HTU21D;57704;51.112;5.878;2022-09-09T04:42:16;16.62;84.83
70300;HTU21D;57704;51.112;5.878;2022-09-09T04:44:46;16.65;84.79
70300;HTU21D;57704;51.112;5.878;2022-09-09T04:47:12;16.64;84.66
70300;HTU21D;57704;51.112;5.878;2022-09-09T04:49:43;16.64;84.72
70300;HTU21D;57704;51.112;5.878;2022-09-09T04:52:10;16.65;84.71
70300;HTU21D;57704;51.112;5.878;2022-09-09T04:54:42;16.63;84.65
70300;HTU21D;57704;51.112;5.878;2022-09-09T04:57:13;16.65;84.73
70300;HTU21D;57704;51.112;5.878;2022-09-09T04:59:42;16.66;84.55
70300;HTU21D;57704;51.112;5.878;2022-09-09T05:02:13;16.69;84.51
70300;HTU21D;57704;51.112;5.878;2022-09-09T05:04:43;16.69;84.47
70300;HTU21D;57704;51.112;5.878;2022-09-09T05:07:09;16.66;84.31
70300;HTU21D;57704;51.112;5.878;2022-09-09T05:09:36;16.62;84.39
70300;HTU21D;57704;51.112;5.878;2022-09-09T05:12:04;16.60;84.16
70300;HTU21D;57704;51.112;5.878;2022-09-09T05:14:38;16.54;84.34
70300;HTU21D;57704;51.112;5.878;2022-09-09T05:17:08;16.52;84.53
70300;HTU21D;57704;51.112;5.878;2022-09-09T05:19:37;16.55;84.52
70300;HTU21D;57704;51.112;5.878;2022-09-09T05:22:04;16.52;84.35
70300;HTU21D;57704;51.112;5.878;2022-09-09T05:24:42;16.49;84.41
70300;HTU21D;57704;51.112;5.878;2022-09-09T05:27:18;16.46;84.35
70300;HTU21D;57704;51.112;5.878;2022-09-09T05:29:52;16.43;84.40
70300;HTU21D;57704;51.112;5.878;2022-09-09T05:32:19;16.40;84.53
70300;HTU21D;57704;51.112;5.878;2022-09-09T05:35:36;16.39;84.55
70300;HTU21D;57704;51.112;5.878;2022-09-09T05:38:08;16.40;84.54
70300;HTU21D;57704;51.112;5.878;2022-09-09T05:40:34;16.40;84.54
70300;HTU21D;57704;51.112;5.878;2022-09-09T05:43:04;16.41;84.45
70300;HTU21D;57704;51.112;5.878;2022-09-09T05:45:30;16.43;84.37
70300;HTU21D;57704;51.112;5.878;2022-09-09T05:47:57;16.42;84.31
70300;HTU21D;57704;51.112;5.878;2022-09-09T05:50:26;16.44;84.35
70300;HTU21D;57704;51.112;5.878;2022-09-09T05:52:54;16.45;84.39
70300;HTU21D;57704;51.112;5.878;2022-09-09T05:55:21;16.48;84.30
70300;HTU21D;57704;51.112;5.878;2022-09-09T05:57:53;16.50;84.35
70300;HTU21D;57704;51.112;5.878;2022-09-09T06:00:20;16.55;84.12
70300;HTU21D;57704;51.112;5.878;2022-09-09T06:02:53;16.56;84.31
70300;HTU21D;57704;51.112;5.878;2022-09-09T06:05:22;16.61;84.17
70300;HTU21D;57704;51.112;5.878;2022-09-09T06:07:53;16.69;84.13
70300;HTU21D;57704;51.112;5.878;2022-09-09T06:10:20;16.77;83.89
70300;HTU21D;57704;51.112;5.878;2022-09-09T06:12:47;16.80;83.78
70300;HTU21D;57704;51.112;5.878;2022-09-09T06:15:14;16.85;83.68
70300;HTU21D;57704;51.112;5.878;2022-09-09T06:17:41;16.94;83.77
70300;HTU21D;57704;51.112;5.878;2022-09-09T06:20:09;17.06;83.47
70300;HTU21D;57704;51.112;5.878;2022-09-09T06:22:36;17.08;83.11
70300;HTU21D;57704;51.112;5.878;2022-09-09T06:25:10;17.15;82.84
70300;HTU21D;57704;51.112;5.878;2022-09-09T06:27:38;17.17;82.88
70300;HTU21D;57704;51.112;5.878;2022-09-09T06:30:05;17.30;82.90
70300;HTU21D;57704;51.112;5.878;2022-09-09T06:32:34;17.43;81.89
70300;HTU21D;57704;51.112;5.878;2022-09-09T06:35:26;17.47;81.91
70300;HTU21D;57704;51.112;5.878;2022-09-09T06:37:56;17.47;81.62
70300;HTU21D;57704;51.112;5.878;2022-09-09T06:40:25;17.49;81.10
70300;HTU21D;57704;51.112;5.878;2022-09-09T06:42:51;17.40;81.45
70300;HTU21D;57704;51.112;5.878;2022-09-09T06:45:31;17.43;81.55
70300;HTU21D;57704;51.112;5.878;2022-09-09T06:47:58;17.53;81.73
70300;HTU21D;57704;51.112;5.878;2022-09-09T06:50:25;17.62;80.92
70300;HTU21D;57704;51.112;5.878;2022-09-09T06:52:51;17.66;80.65
70300;HTU21D;57704;51.112;5.878;2022-09-09T06:55:18;17.66;80.65
70300;HTU21D;57704;51.112;5.878;2022-09-09T06:57:44;17.63;80.24
70300;HTU21D;57704;51.112;5.878;2022-09-09T07:00:16;17.61;80.42
70300;HTU21D;57704;51.112;5.878;2022-09-09T07:02:42;17.59;80.24
70300;HTU21D;57704;51.112;5.878;2022-09-09T07:05:11;17.61;80.45
70300;HTU21D;57704;51.112;5.878;2022-09-09T07:07:42;17.65;80.95
70300;HTU21D;57704;51.112;5.878;2022-09-09T07:10:11;17.76;80.85
70300;HTU21D;57704;51.112;5.878;2022-09-09T07:12:37;17.99;83.23
70300;HTU21D;57704;51.112;5.878;2022-09-09T07:15:04;18.57;86.14
70300;HTU21D;57704;51.112;5.878;2022-09-09T07:17:30;19.52;83.72
70300;HTU21D;57704;51.112;5.878;2022-09-09T07:19:58;20.68;80.62
70300;HTU21D;57704;51.112;5.878;2022-09-09T07:22:27;21.47;74.72
70300;HTU21D;57704;51.112;5.878;2022-09-09T07:24:53;22.23;70.99
70300;HTU21D;57704;51.112;5.878;2022-09-09T07:27:19;22.66;67.72
70300;HTU21D;57704;51.112;5.878;2022-09-09T07:29:48;22.91;67.20
70300;HTU21D;57704;51.112;5.878;2022-09-09T07:32:14;23.37;66.82
70300;HTU21D;57704;51.112;5.878;2022-09-09T07:34:41;23.85;61.38
70300;HTU21D;57704;51.112;5.878;2022-09-09T07:37:07;23.38;62.46
70300;HTU21D;57704;51.112;5.878;2022-09-09T07:39:35;23.37;63.50
70300;HTU21D;57704;51.112;5.878;2022-09-09T07:42:01;23.28;62.91
70300;HTU21D;57704;51.112;5.878;2022-09-09T07:44:27;22.70;62.64
70300;HTU21D;57704;51.112;5.878;2022-09-09T07:47:02;22.25;63.82
70300;HTU21D;57704;51.112;5.878;2022-09-09T07:49:34;22.05;62.90
70300;HTU21D;57704;51.112;5.878;2022-09-09T07:52:02;21.27;64.31
70300;HTU21D;57704;51.112;5.878;2022-09-09T07:54:29;20.61;65.51
70300;HTU21D;57704;51.112;5.878;2022-09-09T07:56:56;20.12;67.14
70300;HTU21D;57704;51.112;5.878;2022-09-09T07:59:27;19.91;67.83
70300;HTU21D;57704;51.112;5.878;2022-09-09T08:01:56;19.67;68.58
70300;HTU21D;57704;51.112;5.878;2022-09-09T08:04:27;19.47;69.53
70300;HTU21D;57704;51.112;5.878;2022-09-09T08:06:57;19.38;69.49
70300;HTU21D;57704;51.112;5.878;2022-09-09T08:09:26;19.16;70.02
70300;HTU21D;57704;51.112;5.878;2022-09-09T08:11:55;18.99;70.39
70300;HTU21D;57704;51.112;5.878;2022-09-09T08:14:23;18.91;70.62
70300;HTU21D;57704;51.112;5.878;2022-09-09T08:16:50;18.91;70.47
70300;HTU21D;57704;51.112;5.878;2022-09-09T08:19:20;18.88;70.91
70300;HTU21D;57704;51.112;5.878;2022-09-09T08:21:47;18.95;70.74
70300;HTU21D;57704;51.112;5.878;2022-09-09T08:24:14;19.05;70.67
70300;HTU21D;57704;51.112;5.878;2022-09-09T08:26:46;19.16;70.98
70300;HTU21D;57704;51.112;5.878;2022-09-09T08:29:15;19.37;71.12
70300;HTU21D;57704;51.112;5.878;2022-09-09T08:31:47;19.66;70.56
70300;HTU21D;57704;51.112;5.878;2022-09-09T08:34:14;20.10;70.56
70300;HTU21D;57704;51.112;5.878;2022-09-09T08:36:43;20.47;68.33
70300;HTU21D;57704;51.112;5.878;2022-09-09T08:39:14;20.63;66.75
70300;HTU21D;57704;51.112;5.878;2022-09-09T08:55:35;22.90;59.51
70300;HTU21D;57704;51.112;5.878;2022-09-09T08:58:21;22.24;59.20
70300;HTU21D;57704;51.112;5.878;2022-09-09T09:04:10;21.34;62.43
70300;HTU21D;57704;51.112;5.878;2022-09-09T09:06:52;21.02;63.11
70300;HTU21D;57704;51.112;5.878;2022-09-09T09:12:01;20.62;63.91
70300;HTU21D;57704;51.112;5.878;2022-09-09T09:14:36;20.42;64.71
70300;HTU21D;57704;51.112;5.878;2022-09-09T09:17:13;20.31;64.72
70300;HTU21D;57704;51.112;5.878;2022-09-09T09:19:48;20.12;65.07
70300;HTU21D;57704;51.112;5.878;2022-09-09T09:25:26;19.83;65.99
70300;HTU21D;57704;51.112;5.878;2022-09-09T09:28:17;19.89;66.08
70300;HTU21D;57704;51.112;5.878;2022-09-09T09:30:50;19.99;66.36
70300;HTU21D;57704;51.112;5.878;2022-09-09T09:33:23;20.18;65.72
70300;HTU21D;57704;51.112;5.878;2022-09-09T09:35:50;20.33;65.38
70300;HTU21D;57704;51.112;5.878;2022-09-09T09:38:23;20.48;65.08
70300;HTU21D;57704;51.112;5.878;2022-09-09T09:40:56;20.57;64.73
70300;HTU21D;57704;51.112;5.878;2022-09-09T09:43:31;20.68;64.82
70300;HTU21D;57704;51.112;5.878;2022-09-09T09:46:00;20.72;63.88
70300;HTU21D;57704;51.112;5.878;2022-09-09T09:48:27;20.63;62.21
70300;HTU21D;57704;51.112;5.878;2022-09-09T09:50:58;20.50;63.64
70300;HTU21D;57704;51.112;5.878;2022-09-09T09:53:29;20.40;64.19
70300;HTU21D;57704;51.112;5.878;2022-09-09T09:56:03;20.41;64.79
70300;HTU21D;57704;51.112;5.878;2022-09-09T09:58:38;20.57;64.43
70300;HTU21D;57704;51.112;5.878;2022-09-09T10:01:28;20.63;64.15
70300;HTU21D;57704;51.112;5.878;2022-09-09T10:06:42;20.51;64.01
70300;HTU21D;57704;51.112;5.878;2022-09-09T10:09:24;20.31;63.98
70300;HTU21D;57704;51.112;5.878;2022-09-09T10:14:39;19.92;66.51
70300;HTU21D;57704;51.112;5.878;2022-09-09T10:22:25;19.95;68.49
70300;HTU21D;57704;51.112;5.878;2022-09-09T10:28:19;20.18;67.33
70300;HTU21D;57704;51.112;5.878;2022-09-09T10:33:50;20.29;66.60
70300;HTU21D;57704;51.112;5.878;2022-09-09T10:36:24;20.30;66.66
70300;HTU21D;57704;51.112;5.878;2022-09-09T10:39:11;20.32;66.53
70300;HTU21D;57704;51.112;5.878;2022-09-09T10:50:18;20.16;65.98
70300;HTU21D;57704;51.112;5.878;2022-09-09T10:55:45;20.04;66.27
70300;HTU21D;57704;51.112;5.878;2022-09-09T10:58:41;20.05;65.93
70300;HTU21D;57704;51.112;5.878;2022-09-09T11:01:24;20.02;65.65
70300;HTU21D;57704;51.112;5.878;2022-09-09T11:04:19;20.05;65.14
70300;HTU21D;57704;51.112;5.878;2022-09-09T11:07:12;20.00;63.89
70300;HTU21D;57704;51.112;5.878;2022-09-09T11:09:52;19.97;64.91
70300;HTU21D;57704;51.112;5.878;2022-09-09T11:12:20;19.85;66.21
70300;HTU21D;57704;51.112;5.878;2022-09-09T11:15:06;19.38;68.26
70300;HTU21D;57704;51.112;5.878;2022-09-09T11:17:46;18.99;70.30
70300;HTU21D;57704;51.112;5.878;2022-09-09T11:20:15;18.78;72.29
70300;HTU21D;57704;51.112;5.878;2022-09-09T11:23:13;18.36;75.47
70300;HTU21D;57704;51.112;5.878;2022-09-09T11:25:52;18.11;74.63
70300;HTU21D;57704;51.112;5.878;2022-09-09T11:31:46;17.99;77.27
70300;HTU21D;57704;51.112;5.878;2022-09-09T11:34:34;18.03;78.36
70300;HTU21D;57704;51.112;5.878;2022-09-09T11:42:46;18.88;78.02
70300;HTU21D;57704;51.112;5.878;2022-09-09T11:45:27;19.12;77.72
70300;HTU21D;57704;51.112;5.878;2022-09-09T11:47:57;19.22;76.98
70300;HTU21D;57704;51.112;5.878;2022-09-09T11:52:51;19.35;77.18
70300;HTU21D;57704;51.112;5.878;2022-09-09T11:55:31;19.37;77.83
70300;HTU21D;57704;51.112;5.878;2022-09-09T12:00:42;19.44;76.65
70300;HTU21D;57704;51.112;5.878;2022-09-09T12:06:30;19.69;76.15
70300;HTU21D;57704;51.112;5.878;2022-09-09T12:11:38;19.76;75.41
70300;HTU21D;57704;51.112;5.878;2022-09-09T12:14:04;19.76;75.23
70300;HTU21D;57704;51.112;5.878;2022-09-09T12:16:38;19.73;74.87
70300;HTU21D;57704;51.112;5.878;2022-09-09T12:22:05;19.50;74.53
70300;HTU21D;57704;51.112;5.878;2022-09-09T12:25:04;19.58;75.02
70300;HTU21D;57704;51.112;5.878;2022-09-09T12:28:15;19.65;72.90
70300;HTU21D;57704;51.112;5.878;2022-09-09T12:31:03;19.67;73.90
70300;HTU21D;57704;51.112;5.878;2022-09-09T12:33:37;19.79;72.83
70300;HTU21D;57704;51.112;5.878;2022-09-09T12:36:12;20.22;73.67
70300;HTU21D;57704;51.112;5.878;2022-09-09T12:38:42;20.75;70.84
70300;HTU21D;57704;51.112;5.878;2022-09-09T12:41:27;20.73;70.85
70300;HTU21D;57704;51.112;5.878;2022-09-09T12:44:09;20.70;71.29
70300;HTU21D;57704;51.112;5.878;2022-09-09T12:46:45;20.70;71.06
70300;HTU21D;57704;51.112;5.878;2022-09-09T12:49:39;20.62;71.00
70300;HTU21D;57704;51.112;5.878;2022-09-09T12:52:29;20.59;71.17
70300;HTU21D;57704;51.112;5.878;2022-09-09T12:55:20;20.53;71.06
70300;HTU21D;57704;51.112;5.878;2022-09-09T12:57:49;20.37;71.47
70300;HTU21D;57704;51.112;5.878;2022-09-09T13:00:19;20.24;71.61
70300;HTU21D;57704;51.112;5.878;2022-09-09T13:02:55;20.07;71.79
70300;HTU21D;57704;51.112;5.878;2022-09-09T13:05:28;19.32;70.84
70300;HTU21D;57704;51.112;5.878;2022-09-09T13:08:05;18.35;74.91
70300;HTU21D;57704;51.112;5.878;2022-09-09T13:10:39;17.88;76.57
70300;HTU21D;57704;51.112;5.878;2022-09-09T13:13:19;17.45;77.89
70300;HTU21D;57704;51.112;5.878;2022-09-09T13:15:53;17.25;78.57
70300;HTU21D;57704;51.112;5.878;2022-09-09T13:18:31;17.08;79.51
70300;HTU21D;57704;51.112;5.878;2022-09-09T13:21:03;17.00;79.80
70300;HTU21D;57704;51.112;5.878;2022-09-09T13:23:34;17.05;80.18
70300;HTU21D;57704;51.112;5.878;2022-09-09T13:28:34;17.08;80.43
70300;HTU21D;57704;51.112;5.878;2022-09-09T13:31:29;17.14;80.66
70300;HTU21D;57704;51.112;5.878;2022-09-09T13:34:57;17.14;80.89
70300;HTU21D;57704;51.112;5.878;2022-09-09T13:38:24;17.21;80.95
70300;HTU21D;57704;51.112;5.878;2022-09-09T13:43:02;17.30;81.14
70300;HTU21D;57704;51.112;5.878;2022-09-09T13:46:40;17.44;81.08
70300;HTU21D;57704;51.112;5.878;2022-09-09T13:52:13;17.69;81.57
70300;HTU21D;57704;51.112;5.878;2022-09-09T13:54:41;17.94;80.97
70300;HTU21D;57704;51.112;5.878;2022-09-09T13:57:20;18.19;81.24
70300;HTU21D;57704;51.112;5.878;2022-09-09T13:59:48;18.47;80.78
70300;HTU21D;57704;51.112;5.878;2022-09-09T14:02:18;18.64;80.37
70300;HTU21D;57704;51.112;5.878;2022-09-09T14:04:44;18.86;80.57
70300;HTU21D;57704;51.112;5.878;2022-09-09T14:07:17;19.08;80.19
70300;HTU21D;57704;51.112;5.878;2022-09-09T14:09:44;19.35;80.08
70300;HTU21D;57704;51.112;5.878;2022-09-09T14:12:11;19.55;79.85
70300;HTU21D;57704;51.112;5.878;2022-09-09T14:14:38;19.95;79.93
70300;HTU21D;57704;51.112;5.878;2022-09-09T14:17:04;20.34;78.92
70300;HTU21D;57704;51.112;5.878;2022-09-09T14:19:31;20.61;78.73
70300;HTU21D;57704;51.112;5.878;2022-09-09T14:21:58;20.89;78.40
70300;HTU21D;57704;51.112;5.878;2022-09-09T14:24:24;21.02;78.03
70300;HTU21D;57704;51.112;5.878;2022-09-09T14:26:51;21.18;77.76
70300;HTU21D;57704;51.112;5.878;2022-09-09T14:29:20;21.29;77.50
70300;HTU21D;57704;51.112;5.878;2022-09-09T14:31:50;21.19;76.53
70300;HTU21D;57704;51.112;5.878;2022-09-09T14:34:16;20.99;76.73
70300;HTU21D;57704;51.112;5.878;2022-09-09T14:36:42;20.78;76.20
70300;HTU21D;57704;51.112;5.878;2022-09-09T14:39:10;20.56;76.76
70300;HTU21D;57704;51.112;5.878;2022-09-09T14:41:36;20.47;77.29
70300;HTU21D;57704;51.112;5.878;2022-09-09T14:44:03;20.47;76.52
70300;HTU21D;57704;51.112;5.878;2022-09-09T14:46:30;20.31;76.37
70300;HTU21D;57704;51.112;5.878;2022-09-09T14:48:59;20.21;75.86
70300;HTU21D;57704;51.112;5.878;2022-09-09T14:51:26;20.24;77.02
70300;HTU21D;57704;51.112;5.878;2022-09-09T14:53:58;20.39;74.08
70300;HTU21D;57704;51.112;5.878;2022-09-09T14:56:49;20.44;76.18
70300;HTU21D;57704;51.112;5.878;2022-09-09T14:59:17;20.48;75.80
70300;HTU21D;57704;51.112;5.878;2022-09-09T15:01:44;20.57;74.38
70300;HTU21D;57704;51.112;5.878;2022-09-09T15:04:15;20.65;75.12
70300;HTU21D;57704;51.112;5.878;2022-09-09T15:06:43;20.71;73.68
70300;HTU21D;57704;51.112;5.878;2022-09-09T15:09:14;20.58;73.78
70300;HTU21D;57704;51.112;5.878;2022-09-09T15:11:41;20.48;73.55
70300;HTU21D;57704;51.112;5.878;2022-09-09T15:14:10;20.43;72.74
70300;HTU21D;57704;51.112;5.878;2022-09-09T15:16:42;20.35;72.50
70300;HTU21D;57704;51.112;5.878;2022-09-09T15:19:08;20.30;72.25
70300;HTU21D;57704;51.112;5.878;2022-09-09T15:21:36;20.29;72.90
70300;HTU21D;57704;51.112;5.878;2022-09-09T15:24:05;20.45;73.74
70300;HTU21D;57704;51.112;5.878;2022-09-09T15:26:37;20.76;72.94
70300;HTU21D;57704;51.112;5.878;2022-09-09T15:29:06;20.92;69.74
70300;HTU21D;57704;51.112;5.878;2022-09-09T15:31:33;20.94;71.61
70300;HTU21D;57704;51.112;5.878;2022-09-09T15:34:02;20.98;71.42
70300;HTU21D;57704;51.112;5.878;2022-09-09T15:36:30;21.01;71.09
70300;HTU21D;57704;51.112;5.878;2022-09-09T15:38:59;21.10;71.22
70300;HTU21D;57704;51.112;5.878;2022-09-09T15:41:26;21.11;70.00
70300;HTU21D;57704;51.112;5.878;2022-09-09T15:43:55;21.01;70.25
70300;HTU21D;57704;51.112;5.878;2022-09-09T15:46:36;20.92;69.11
70300;HTU21D;57704;51.112;5.878;2022-09-09T15:49:05;20.98;70.15
70300;HTU21D;57704;51.112;5.878;2022-09-09T15:51:33;20.95;70.23
70300;HTU21D;57704;51.112;5.878;2022-09-09T15:54:02;21.00;70.21
70300;HTU21D;57704;51.112;5.878;2022-09-09T15:56:29;21.05;69.98
70300;HTU21D;57704;51.112;5.878;2022-09-09T15:59:00;21.14;69.46
70300;HTU21D;57704;51.112;5.878;2022-09-09T16:01:30;21.23;69.14
70300;HTU21D;57704;51.112;5.878;2022-09-09T16:03:58;21.28;68.37
70300;HTU21D;57704;51.112;5.878;2022-09-09T16:06:27;21.37;68.58
70300;HTU21D;57704;51.112;5.878;2022-09-09T16:08:58;21.43;67.85
70300;HTU21D;57704;51.112;5.878;2022-09-09T16:11:27;21.37;67.33
70300;HTU21D;57704;51.112;5.878;2022-09-09T16:13:55;21.33;66.98
70300;HTU21D;57704;51.112;5.878;2022-09-09T16:16:26;21.22;66.93
70300;HTU21D;57704;51.112;5.878;2022-09-09T16:18:56;21.13;67.22
70300;HTU21D;57704;51.112;5.878;2022-09-09T16:21:26;21.06;67.20
70300;HTU21D;57704;51.112;5.878;2022-09-09T16:23:57;21.00;67.63
70300;HTU21D;57704;51.112;5.878;2022-09-09T16:26:25;20.95;67.68
70300;HTU21D;57704;51.112;5.878;2022-09-09T16:28:52;20.95;67.73
70300;HTU21D;57704;51.112;5.878;2022-09-09T16:31:45;20.95;67.54
70300;HTU21D;57704;51.112;5.878;2022-09-09T16:34:12;21.00;67.79
70300;HTU21D;57704;51.112;5.878;2022-09-09T16:36:42;21.02;66.72
70300;HTU21D;57704;51.112;5.878;2022-09-09T16:39:12;21.02;67.01
70300;HTU21D;57704;51.112;5.878;2022-09-09T16:41:40;20.99;66.65
70300;HTU21D;57704;51.112;5.878;2022-09-09T16:44:10;20.98;67.06
70300;HTU21D;57704;51.112;5.878;2022-09-09T16:46:39;20.93;66.89
70300;HTU21D;57704;51.112;5.878;2022-09-09T16:49:09;20.86;66.47
70300;HTU21D;57704;51.112;5.878;2022-09-09T16:51:38;20.69;67.03
70300;HTU21D;57704;51.112;5.878;2022-09-09T16:54:08;20.57;67.45
70300;HTU21D;57704;51.112;5.878;2022-09-09T16:56:38;20.51;67.53
70300;HTU21D;57704;51.112;5.878;2022-09-09T16:59:40;20.43;67.80
70300;HTU21D;57704;51.112;5.878;2022-09-09T17:02:00;20.36;68.17
70300;HTU21D;57704;51.112;5.878;2022-09-09T17:04:30;20.31;68.26
70300;HTU21D;57704;51.112;5.878;2022-09-09T17:06:56;20.29;68.04
70300;HTU21D;57704;51.112;5.878;2022-09-09T17:09:26;20.21;67.99
70300;HTU21D;57704;51.112;5.878;2022-09-09T17:11:57;20.14;68.32
70300;HTU21D;57704;51.112;5.878;2022-09-09T17:14:24;20.07;68.21
70300;HTU21D;57704;51.112;5.878;2022-09-09T17:16:51;20.02;68.05
70300;HTU21D;57704;51.112;5.878;2022-09-09T17:19:17;19.94;68.18
70300;HTU21D;57704;51.112;5.878;2022-09-09T17:21:44;19.89;68.02
70300;HTU21D;57704;51.112;5.878;2022-09-09T17:24:13;19.83;67.98
70300;HTU21D;57704;51.112;5.878;2022-09-09T17:26:39;19.74;68.12
70300;HTU21D;57704;51.112;5.878;2022-09-09T17:29:05;19.63;68.57
70300;HTU21D;57704;51.112;5.878;2022-09-09T17:31:32;19.61;68.38
70300;HTU21D;57704;51.112;5.878;2022-09-09T17:34:01;19.57;68.78
70300;HTU21D;57704;51.112;5.878;2022-09-09T17:36:32;19.57;68.92
70300;HTU21D;57704;51.112;5.878;2022-09-09T17:39:00;19.54;68.96
70300;HTU21D;57704;51.112;5.878;2022-09-09T17:41:33;19.55;69.00
70300;HTU21D;57704;51.112;5.878;2022-09-09T17:44:00;19.55;69.25
70300;HTU21D;57704;51.112;5.878;2022-09-09T17:46:32;19.57;69.07
70300;HTU21D;57704;51.112;5.878;2022-09-09T17:49:03;19.57;68.91
70300;HTU21D;57704;51.112;5.878;2022-09-09T17:51:32;19.62;68.71
70300;HTU21D;57704;51.112;5.878;2022-09-09T17:54:04;19.66;68.46
70300;HTU21D;57704;51.112;5.878;2022-09-09T17:56:32;19.68;68.35